Eola, Louisiana
Current Conditions -  °F | °C
As of 11:35 AM on Wednesday 26 Nov 2014 (Local Time) from KOPL Reporting Station
Clear Clear  
Wind Chill: 67°   Ceiling: Unl
Heat Index: 67°   Visibility: 10mi
Dew Point: 43°   Wind: 13mph
Humidity: 43%   Direction: 230°SW
Pressure: 30.22"   Gusts: 21mph
Location:  30.9328°N, 92.1876°W
Report Text: KOPL 261735Z AUTO 23011G18KT 10SM CLR 19/06 A3022 RMK AO2 T01920062
Loading
Personal Weather Stations






























Interactive Weather Map New forecast layout! Learn more

10-Day Weather Forecast

Advertisements
Track Severe Weather on mobile